Hedley, Texas
Current Conditions -  °F | °C
As of 12:53 AM on Monday 22 Dec 2014 (Local Time) from KCDS Reporting Station
Clear Clear  
Wind Chill: 36°   Ceiling: Unl
Heat Index: 41°   Visibility: 10mi
Dew Point: 34°   Wind: 7mph
Humidity: 76%   Direction: 330°NNW
Pressure: 29.53"   Gusts: NA
Location:  34.87°N, 100.66°W
Report Text: KCDS 220653Z AUTO 33006KT 10SM CLR 05/01 A2953 RMK AO2 SLP994 T00500011
Loading
Personal Weather Stations






























Interactive Weather Map New forecast layout! Learn more

10-Day Weather Forecast

Advertisements
Track Severe Weather on mobile